Adelphia, New Jersey
Current Conditions -  °F | °C
As of 7:15 PM on Wednesday 22 Oct 2014 (Local Time) from KBLM Reporting Station
Overcast Overcast  
Wind Chill: 11°   Ceiling: 1700
Heat Index: 11°   Visibility: 7mi
Dew Point:   Wind: 16mph
Humidity: 82%   Direction: 350°N
Pressure: 29.78"   Gusts: 22mph
Location:  40.22°N, 74.26°W
Report Text: KBLM 222315Z AUTO 35014G19KT 7SM FEW009 BKN017 OVC021 11/08 A2978 RMK AO1 P0004
Loading
Personal Weather Stations






























Interactive Weather Map
Tropical Storm Tracking
New forecast layout! Learn more

10-Day Weather Forecast

Advertisements
Track Severe Weather on mobile